createdAt,value
2023-01-11T00:02:27.430Z,-1.38
2023-01-11T00:04:54.612Z,-1.72
2023-01-11T00:07:21.644Z,-1.80
2023-01-11T00:09:48.672Z,-1.06
2023-01-11T00:12:15.732Z,-1.78
2023-01-11T00:14:42.749Z,-2.07
2023-01-11T00:17:09.935Z,-1.59
2023-01-11T00:19:37.069Z,-0.35
2023-01-11T00:22:04.274Z,-0.01
2023-01-11T00:24:31.269Z,-0.69
2023-01-11T00:26:58.203Z,-0.13
2023-01-11T00:29:25.376Z,0.25
2023-01-11T00:31:53.602Z,0.47
2023-01-11T00:34:20.845Z,0.84
2023-01-11T00:36:47.851Z,1.18
2023-01-11T00:39:14.892Z,0.99
2023-01-11T00:42:00.835Z,1.31
2023-01-11T00:44:46.657Z,1.53
2023-01-11T00:47:35.897Z,0.91
2023-01-11T00:50:04.726Z,0.54
2023-01-11T00:52:31.742Z,0.68
2023-01-11T00:54:58.925Z,1.02
2023-01-11T00:57:26.055Z,0.71
2023-01-11T00:59:53.153Z,0.62
2023-01-11T01:02:20.239Z,0.82
2023-01-11T01:04:47.458Z,0.97
2023-01-11T01:07:14.392Z,0.05
2023-01-11T01:09:41.408Z,0.83
2023-01-11T01:12:09.507Z,1.08
2023-01-11T01:14:36.696Z,0.93
2023-01-11T01:17:07.778Z,1.21
2023-01-11T01:19:36.534Z,1.49
2023-01-11T01:22:04.089Z,1.57
2023-01-11T01:24:31.196Z,1.57
2023-01-11T01:26:58.478Z,1.61
2023-01-11T01:29:26.023Z,1.72
2023-01-11T01:31:53.253Z,1.63
2023-01-11T01:34:20.217Z,1.64
2023-01-11T01:36:47.229Z,1.77
2023-01-11T01:39:14.205Z,1.93
2023-01-11T01:41:41.259Z,1.99
2023-01-11T01:44:46.087Z,2.01
2023-01-11T01:47:13.111Z,1.95
2023-01-11T01:49:40.148Z,1.68
2023-01-11T01:52:07.157Z,1.83
2023-01-11T01:54:36.989Z,1.84
2023-01-11T01:57:11.805Z,1.04
2023-01-11T01:59:38.827Z,0.31
2023-01-11T02:02:05.825Z,1.04
2023-01-11T02:04:35.740Z,0.81
2023-01-11T02:07:04.889Z,0.98
2023-01-11T02:10:08.141Z,-0.23
2023-01-11T02:12:38.311Z,0.46
2023-01-11T02:15:05.822Z,0.91
2023-01-11T02:17:35.150Z,1.14
2023-01-11T02:20:08.495Z,1.15
2023-01-11T02:23:13.418Z,0.31
2023-01-11T02:26:05.498Z,-0.10
2023-01-11T02:28:49.748Z,0.07
2023-01-11T02:31:36.661Z,0.19
2023-01-11T02:34:38.042Z,0.61
2023-01-11T02:37:27.226Z,0.25
2023-01-11T02:40:13.048Z,0.13
2023-01-11T02:43:02.507Z,0.71
2023-01-11T02:45:29.561Z,0.28
2023-01-11T02:48:02.608Z,0.10
2023-01-11T02:50:36.689Z,0.70
2023-01-11T02:53:08.001Z,1.09
2023-01-11T02:55:37.785Z,1.31
2023-01-11T02:58:06.799Z,1.07
2023-01-11T03:00:34.920Z,1.24
2023-01-11T03:03:10.155Z,0.87
2023-01-11T03:05:40.118Z,0.71
2023-01-11T03:08:33.608Z,0.26
2023-01-11T03:11:04.778Z,0.97
2023-01-11T03:13:54.931Z,0.84
2023-01-11T03:16:25.422Z,-0.41
2023-01-11T03:18:58.674Z,0.13
2023-01-11T03:21:44.156Z,-1.45
2023-01-11T03:24:19.777Z,-0.84
2023-01-11T03:26:52.385Z,-0.75
2023-01-11T03:29:48.473Z,-1.19
2023-01-11T03:32:44.969Z,-0.46
2023-01-11T03:35:18.002Z,-0.64
2023-01-11T03:38:09.552Z,-1.71
2023-01-11T03:40:55.633Z,-0.98
2023-01-11T03:43:23.069Z,-0.72
2023-01-11T03:45:51.269Z,-1.23
2023-01-11T03:48:40.000Z,-1.03
2023-01-11T03:51:08.859Z,0.09
2023-01-11T03:53:36.461Z,0.26
2023-01-11T03:56:03.774Z,0.32
2023-01-11T03:58:30.777Z,0.29
2023-01-11T04:00:58.205Z,0.91
2023-01-11T04:03:27.113Z,0.03
2023-01-11T04:05:58.139Z,0.74
2023-01-11T04:08:25.686Z,1.11
2023-01-11T04:10:52.878Z,1.51
2023-01-11T04:13:19.943Z,1.76
2023-01-11T04:15:46.943Z,1.86
2023-01-11T04:18:13.888Z,1.79
2023-01-11T04:20:40.951Z,1.84
2023-01-11T04:23:08.483Z,1.90
2023-01-11T04:25:35.503Z,2.03
2023-01-11T04:28:02.727Z,1.78
2023-01-11T04:30:29.730Z,1.99
2023-01-11T04:32:59.937Z,1.90
2023-01-11T04:35:27.022Z,1.95
2023-01-11T04:37:57.664Z,2.13
2023-01-11T04:40:25.010Z,2.28
2023-01-11T04:42:52.721Z,1.95
2023-01-11T04:45:20.037Z,1.87
2023-01-11T04:47:47.049Z,1.90
2023-01-11T04:50:14.717Z,2.20
2023-01-11T04:52:42.001Z,1.99
2023-01-11T04:55:09.495Z,2.28
2023-01-11T04:57:36.632Z,2.47
2023-01-11T05:00:08.012Z,2.42
2023-01-11T05:02:35.030Z,2.23
2023-01-11T05:05:02.090Z,2.34
2023-01-11T05:07:29.082Z,2.48
2023-01-11T05:09:56.111Z,2.54
2023-01-11T05:12:23.338Z,2.54
2023-01-11T05:14:50.791Z,2.58
2023-01-11T05:17:20.700Z,2.70
2023-01-11T05:19:47.736Z,2.79
2023-01-11T05:22:14.756Z,2.77
2023-01-11T05:24:42.203Z,2.72
2023-01-11T05:27:09.395Z,2.84
2023-01-11T05:29:36.600Z,2.93
2023-01-11T05:32:03.837Z,2.88
2023-01-11T05:34:31.033Z,2.79
2023-01-11T05:36:58.136Z,2.89
2023-01-11T05:39:25.221Z,2.89
2023-01-11T05:41:52.195Z,2.99
2023-01-11T05:44:37.782Z,3.01
2023-01-11T05:47:04.822Z,2.67
2023-01-11T05:49:31.992Z,2.86
2023-01-11T05:52:00.523Z,2.67
2023-01-11T05:54:27.931Z,2.40
2023-01-11T05:56:56.925Z,2.71
2023-01-11T05:59:23.968Z,2.97
2023-01-11T06:01:51.189Z,2.96
2023-01-11T06:04:18.263Z,2.99
2023-01-11T06:06:45.363Z,2.99
2023-01-11T06:09:12.359Z,3.01
2023-01-11T06:11:39.395Z,3.07
2023-01-11T06:14:06.419Z,3.18
2023-01-11T06:16:33.465Z,3.00
2023-01-11T06:19:00.462Z,2.92
2023-01-11T06:21:28.692Z,3.04
2023-01-11T06:23:55.648Z,2.95
2023-01-11T06:26:22.761Z,3.11
2023-01-11T06:28:50.008Z,3.18
2023-01-11T06:31:18.131Z,3.10
2023-01-11T06:33:45.985Z,3.18
2023-01-11T06:36:13.431Z,3.26
2023-01-11T06:38:40.505Z,3.38
2023-01-11T06:41:10.268Z,3.30
2023-01-11T06:43:38.309Z,3.52
2023-01-11T06:46:05.495Z,3.30
2023-01-11T06:48:32.481Z,3.43
2023-01-11T06:50:59.586Z,3.59
2023-01-11T06:53:28.867Z,3.17
2023-01-11T06:55:57.274Z,3.18
2023-01-11T06:58:24.624Z,3.23
2023-01-11T07:00:52.500Z,2.46
2023-01-11T07:03:20.620Z,1.84
2023-01-11T07:05:47.671Z,2.28
2023-01-11T07:08:14.699Z,1.39
2023-01-11T07:10:42.321Z,1.14
2023-01-11T07:13:11.295Z,0.74
2023-01-11T07:15:38.340Z,0.48
2023-01-11T07:18:05.394Z,-0.02
2023-01-11T07:20:32.331Z,0.01
2023-01-11T07:22:59.975Z,0.35
2023-01-11T07:25:30.467Z,1.17
2023-01-11T07:28:01.915Z,1.60
2023-01-11T07:30:29.984Z,1.46
2023-01-11T07:33:00.327Z,1.34
2023-01-11T07:35:29.016Z,1.52
2023-01-11T07:37:56.133Z,2.03
2023-01-11T07:40:23.149Z,2.51
2023-01-11T07:43:10.699Z,2.52
2023-01-11T07:45:45.885Z,2.96
2023-01-11T07:48:13.789Z,2.71
2023-01-11T07:50:44.057Z,2.12
2023-01-11T07:53:13.023Z,2.70
2023-01-11T07:55:40.847Z,2.74
2023-01-11T07:58:16.946Z,3.16
2023-01-11T08:00:44.255Z,3.11
2023-01-11T08:03:11.339Z,3.01
2023-01-11T08:05:38.546Z,3.24
2023-01-11T08:08:05.709Z,3.07
2023-01-11T08:10:32.864Z,3.15
2023-01-11T08:13:18.757Z,2.48
2023-01-11T08:15:45.940Z,2.98
2023-01-11T08:18:13.157Z,1.01
2023-01-11T08:20:40.282Z,0.42
2023-01-11T08:23:08.960Z,0.93
2023-01-11T08:25:35.960Z,1.43
2023-01-11T08:28:03.745Z,2.04
2023-01-11T08:30:30.710Z,2.16
2023-01-11T08:33:00.115Z,3.03
2023-01-11T08:35:27.227Z,3.31
2023-01-11T08:37:54.262Z,3.44
2023-01-11T08:40:23.840Z,3.53
2023-01-11T08:42:57.890Z,3.72
2023-01-11T08:45:25.497Z,3.82
2023-01-11T08:47:52.606Z,3.96
2023-01-11T08:50:20.163Z,4.22
2023-01-11T08:52:48.097Z,4.33
2023-01-11T08:55:15.042Z,4.32
2023-01-11T08:57:42.004Z,4.29
2023-01-11T09:00:09.499Z,4.05
2023-01-11T09:02:36.555Z,4.31
2023-01-11T09:05:03.569Z,1.75
2023-01-11T09:07:30.511Z,0.76
2023-01-11T09:09:57.464Z,0.40
2023-01-11T09:12:24.578Z,0.63
2023-01-11T09:14:51.586Z,1.56
2023-01-11T09:17:18.499Z,1.26
2023-01-11T09:19:45.432Z,1.01
2023-01-11T09:22:12.378Z,0.50
2023-01-11T09:24:39.332Z,1.21
2023-01-11T09:27:06.435Z,1.43
2023-01-11T09:29:35.581Z,2.57
2023-01-11T09:32:04.229Z,1.95
2023-01-11T09:34:31.824Z,2.69
2023-01-11T09:37:00.816Z,3.46
2023-01-11T09:39:28.905Z,2.65
2023-01-11T09:42:11.670Z,1.91
2023-01-11T09:44:52.102Z,1.47
2023-01-11T09:47:31.877Z,1.08
2023-01-11T09:50:01.659Z,1.11
2023-01-11T09:52:38.399Z,1.20
2023-01-11T09:55:06.714Z,1.58
2023-01-11T09:57:39.599Z,2.31
2023-01-11T10:00:13.164Z,2.26
2023-01-11T10:03:01.523Z,3.11
2023-01-11T10:06:21.232Z,3.12
2023-01-11T10:18:33.151Z,3.33
2023-01-11T10:18:38.922Z,4.27
2023-01-11T10:21:13.450Z,4.73
2023-01-11T10:23:49.783Z,5.07
2023-01-11T10:26:23.449Z,5.46
2023-01-11T10:29:14.656Z,5.35
2023-01-11T10:32:00.036Z,5.06
2023-01-11T10:34:54.900Z,5.52
2023-01-11T10:37:47.175Z,5.96
2023-01-11T10:40:35.424Z,5.29
2023-01-11T10:43:22.595Z,5.32
2023-01-11T10:46:13.631Z,5.50
2023-01-11T10:48:42.624Z,5.41
2023-01-11T10:51:12.779Z,6.04
2023-01-11T10:53:43.602Z,6.24
2023-01-11T10:56:20.174Z,5.85
2023-01-11T10:59:05.180Z,5.96
2023-01-11T11:01:56.819Z,6.23
2023-01-11T11:05:02.838Z,6.01
2023-01-11T11:07:32.936Z,5.91
2023-01-11T11:10:49.097Z,5.75
2023-01-11T11:13:23.872Z,6.16
2023-01-11T11:16:17.084Z,5.38
2023-01-11T11:18:45.510Z,5.60
2023-01-11T11:21:23.804Z,5.77
2023-01-11T11:23:56.161Z,5.39
2023-01-11T11:26:23.500Z,5.08
2023-01-11T11:29:08.339Z,5.56
2023-01-11T11:31:36.841Z,5.41
2023-01-11T11:34:33.431Z,6.77
2023-01-11T11:37:00.868Z,7.22
2023-01-11T11:39:31.033Z,6.96
2023-01-11T11:42:08.948Z,6.13
2023-01-11T11:44:35.960Z,6.65
2023-01-11T11:47:07.389Z,5.75
2023-01-11T11:49:35.534Z,5.19
2023-01-11T11:52:04.101Z,5.98
2023-01-11T11:54:41.537Z,6.43
2023-01-11T11:57:21.085Z,6.99
2023-01-11T11:59:49.350Z,6.30
2023-01-11T12:02:28.167Z,6.72
2023-01-11T12:04:55.177Z,4.79
2023-01-11T12:07:23.372Z,4.20
2023-01-11T12:09:57.582Z,4.94
2023-01-11T12:12:27.820Z,5.46
2023-01-11T12:15:20.290Z,5.62
2023-01-11T12:17:47.912Z,5.25
2023-01-11T12:20:24.035Z,5.59
2023-01-11T12:22:51.410Z,6.25
2023-01-11T12:25:22.003Z,6.86
2023-01-11T12:28:18.190Z,5.30
2023-01-11T12:30:53.365Z,6.23
2023-01-11T12:33:39.126Z,5.34
2023-01-11T12:36:18.750Z,6.12
2023-01-11T12:39:12.735Z,6.66
2023-01-11T12:41:50.371Z,6.72
2023-01-11T12:44:34.950Z,7.54
2023-01-11T12:47:15.311Z,6.76
2023-01-11T12:49:57.012Z,7.13
2023-01-11T12:52:36.185Z,7.34
2023-01-11T12:55:28.216Z,7.40
2023-01-11T12:58:18.354Z,7.14
2023-01-11T13:01:13.269Z,6.15
2023-01-11T13:03:58.886Z,7.20
2023-01-11T13:06:34.783Z,7.45
2023-01-11T13:09:06.206Z,7.27
2023-01-11T13:12:04.264Z,6.47
2023-01-11T13:14:34.234Z,7.03
2023-01-11T13:17:17.981Z,6.56
2023-01-11T13:19:51.430Z,7.56
2023-01-11T13:22:19.913Z,7.44
2023-01-11T13:24:51.067Z,7.20
2023-01-11T13:27:22.545Z,5.56
2023-01-11T13:29:52.238Z,5.35
2023-01-11T13:32:23.614Z,5.36
2023-01-11T13:34:59.442Z,5.96
2023-01-11T13:37:41.855Z,6.06
2023-01-11T13:40:19.087Z,6.45
2023-01-11T13:42:51.947Z,6.79
2023-01-11T13:45:24.363Z,6.60
2023-01-11T13:47:53.816Z,6.65
2023-01-11T13:50:29.049Z,6.83
2023-01-11T13:53:10.024Z,6.84
2023-01-11T13:55:40.101Z,7.03
2023-01-11T13:58:12.205Z,6.81
2023-01-11T14:01:03.650Z,7.06
2023-01-11T14:03:47.242Z,6.73
2023-01-11T14:06:26.602Z,7.41
2023-01-11T14:09:35.013Z,7.34
2023-01-11T14:12:01.968Z,6.87
2023-01-11T14:14:50.246Z,6.81
2023-01-11T14:17:40.398Z,6.81
2023-01-11T14:20:15.348Z,6.47
2023-01-11T14:22:55.300Z,6.49
2023-01-11T14:25:30.179Z,7.16
2023-01-11T14:28:06.170Z,7.45
2023-01-11T14:31:07.829Z,6.49
2023-01-11T14:33:50.364Z,6.51
2023-01-11T14:36:45.947Z,6.44
2023-01-11T14:39:28.029Z,5.93
2023-01-11T14:42:04.106Z,6.43
2023-01-11T14:45:02.173Z,6.13
2023-01-11T14:47:45.138Z,5.35
2023-01-11T14:50:15.045Z,5.13
2023-01-11T14:52:42.205Z,5.24
2023-01-11T14:55:15.181Z,5.44
2023-01-11T14:58:01.591Z,5.55
2023-01-11T15:00:28.563Z,5.61
2023-01-11T15:03:01.267Z,6.50
2023-01-11T15:05:28.161Z,5.79
2023-01-11T15:08:14.424Z,5.89
2023-01-11T15:11:00.338Z,6.44
2023-01-11T15:13:35.707Z,6.14
2023-01-11T15:16:42.199Z,6.66
2023-01-11T15:19:23.831Z,6.96
2023-01-11T15:21:53.294Z,7.19
2023-01-11T15:24:25.458Z,7.11
2023-01-11T15:26:52.566Z,5.93
2023-01-11T15:29:33.023Z,6.24
2023-01-11T15:32:04.422Z,6.11
2023-01-11T15:34:31.343Z,6.00
2023-01-11T15:37:02.310Z,6.84
2023-01-11T15:39:48.094Z,7.11
2023-01-11T15:42:24.307Z,7.32
2023-01-11T15:45:16.386Z,6.60
2023-01-11T15:48:19.528Z,6.76
2023-01-11T15:51:08.102Z,5.26
2023-01-11T15:53:55.689Z,6.05
2023-01-11T15:56:49.345Z,6.27
2023-01-11T15:59:25.536Z,6.22
2023-01-11T16:02:14.365Z,5.77
2023-01-11T16:04:56.910Z,6.29
2023-01-11T16:07:40.471Z,6.10
2023-01-11T16:10:27.811Z,6.13
2023-01-11T16:12:54.756Z,5.47
2023-01-11T16:15:58.290Z,4.99
2023-01-11T16:18:33.967Z,5.10
2023-01-11T16:21:07.865Z,5.14
2023-01-11T16:23:34.879Z,4.61
2023-01-11T16:26:01.927Z,5.55
2023-01-11T16:28:28.855Z,4.66
2023-01-11T16:31:02.994Z,5.11
2023-01-11T16:33:31.270Z,5.35
2023-01-11T16:36:07.584Z,4.29
2023-01-11T16:38:42.673Z,3.42
2023-01-11T16:41:13.237Z,3.62
2023-01-11T16:43:46.109Z,4.08
2023-01-11T16:46:33.219Z,3.73
2023-01-11T16:49:08.971Z,4.00
2023-01-11T16:51:36.011Z,3.50
2023-01-11T16:54:03.088Z,3.07
2023-01-11T16:56:31.481Z,3.10
2023-01-11T16:59:20.285Z,3.16
2023-01-11T17:01:51.371Z,3.02
2023-01-11T17:04:44.406Z,2.82
2023-01-11T17:07:13.481Z,3.66
2023-01-11T17:09:43.642Z,4.05
2023-01-11T17:12:15.152Z,3.70
2023-01-11T17:14:54.426Z,3.86
2023-01-11T17:17:21.538Z,3.46
2023-01-11T17:19:49.093Z,3.57
2023-01-11T17:22:17.163Z,4.54
2023-01-11T17:24:53.853Z,4.91
2023-01-11T17:27:23.188Z,4.53
2023-01-11T17:29:52.079Z,4.24
2023-01-11T17:32:32.178Z,4.26
2023-01-11T17:34:59.167Z,3.65
2023-01-11T17:37:26.112Z,4.71
2023-01-11T17:39:53.795Z,5.32
2023-01-11T17:42:39.569Z,5.69
2023-01-11T17:45:22.769Z,5.83
2023-01-11T17:47:51.476Z,5.75
2023-01-11T17:50:19.795Z,5.85
2023-01-11T17:52:54.484Z,5.20
2023-01-11T17:55:25.974Z,4.23
2023-01-11T17:58:26.647Z,5.55
2023-01-11T18:01:08.869Z,5.23
2023-01-11T18:03:57.955Z,5.82
2023-01-11T18:06:41.599Z,5.24
2023-01-11T18:09:17.816Z,5.90
2023-01-11T18:11:44.744Z,5.78
2023-01-11T18:14:28.093Z,5.83
2023-01-11T18:17:05.565Z,5.67
2023-01-11T18:19:33.656Z,6.08
2023-01-11T18:22:00.647Z,5.29
2023-01-11T18:24:30.038Z,5.39
2023-01-11T18:27:15.431Z,3.89
2023-01-11T18:29:42.488Z,5.06
2023-01-11T18:32:13.014Z,5.26
2023-01-11T18:34:40.496Z,5.56
2023-01-11T18:37:07.553Z,4.47
2023-01-11T18:39:35.033Z,4.53
2023-01-11T18:42:11.736Z,4.90
2023-01-11T18:44:39.590Z,4.51
2023-01-11T18:47:23.639Z,5.18
2023-01-11T18:49:51.130Z,2.84
2023-01-11T18:52:18.891Z,4.15
2023-01-11T18:54:46.228Z,3.47
2023-01-11T18:57:13.264Z,3.90
2023-01-11T18:59:40.278Z,4.64
2023-01-11T19:02:16.585Z,3.10
2023-01-11T19:04:44.051Z,3.73
2023-01-11T19:07:11.303Z,3.36
2023-01-11T19:09:38.363Z,3.37
2023-01-11T19:12:05.703Z,3.63
2023-01-11T19:14:32.927Z,4.00
2023-01-11T19:16:59.841Z,4.89
2023-01-11T19:19:26.794Z,4.52
2023-01-11T19:21:54.207Z,4.75
2023-01-11T19:24:21.242Z,4.28
2023-01-11T19:26:49.402Z,2.90
2023-01-11T19:29:19.124Z,3.91
2023-01-11T19:31:46.708Z,3.79
2023-01-11T19:34:13.952Z,3.19
2023-01-11T19:36:41.044Z,4.10
2023-01-11T19:39:11.179Z,3.73
2023-01-11T19:41:57.133Z,4.31
2023-01-11T19:44:26.718Z,4.06
2023-01-11T19:47:09.677Z,4.70
2023-01-11T19:49:37.855Z,4.93
2023-01-11T19:52:05.629Z,4.23
2023-01-11T19:54:32.625Z,5.05
2023-01-11T19:56:59.692Z,4.56
2023-01-11T19:59:26.765Z,3.50
2023-01-11T20:01:54.001Z,3.84
2023-01-11T20:04:21.302Z,4.73
2023-01-11T20:06:52.197Z,5.26
2023-01-11T20:09:19.674Z,5.33
2023-01-11T20:11:46.837Z,4.71
2023-01-11T20:14:13.884Z,5.12
2023-01-11T20:16:40.895Z,5.24
2023-01-11T20:19:07.921Z,5.07
2023-01-11T20:21:35.429Z,4.85
2023-01-11T20:24:02.890Z,4.91
2023-01-11T20:26:31.464Z,3.19
2023-01-11T20:28:58.860Z,4.08
2023-01-11T20:31:28.408Z,4.38
2023-01-11T20:33:56.099Z,2.81
2023-01-11T20:36:23.207Z,3.63
2023-01-11T20:38:50.181Z,4.18
2023-01-11T20:41:37.713Z,4.66
2023-01-11T20:44:05.829Z,3.94
2023-01-11T20:46:33.515Z,4.67
2023-01-11T20:49:00.711Z,4.68
2023-01-11T20:51:28.050Z,4.64
2023-01-11T20:53:55.388Z,4.47
2023-01-11T20:56:22.492Z,3.88
2023-01-11T20:58:51.531Z,4.88
2023-01-11T21:01:19.947Z,4.67
2023-01-11T21:03:46.928Z,5.18
2023-01-11T21:06:15.635Z,5.27
2023-01-11T21:08:43.017Z,2.57
2023-01-11T21:11:12.007Z,3.33
2023-01-11T21:13:39.011Z,3.98
2023-01-11T21:16:15.899Z,4.56
2023-01-11T21:18:46.647Z,5.08
2023-01-11T21:21:15.398Z,5.21
2023-01-11T21:23:42.507Z,5.32
2023-01-11T21:26:13.760Z,5.63
2023-01-11T21:28:41.079Z,5.57
2023-01-11T21:31:09.063Z,5.10
2023-01-11T21:33:37.460Z,5.01
2023-01-11T21:36:06.037Z,5.29
2023-01-11T21:38:33.245Z,4.09
2023-01-11T21:41:07.095Z,4.93
2023-01-11T21:43:34.421Z,4.72
2023-01-11T21:46:01.634Z,4.94
2023-01-11T21:48:28.676Z,5.14
2023-01-11T21:50:55.626Z,5.21
2023-01-11T21:53:23.265Z,5.61
2023-01-11T21:55:50.446Z,5.19
2023-01-11T21:58:17.557Z,5.49
2023-01-11T22:00:44.744Z,5.17
2023-01-11T22:03:11.809Z,5.15
2023-01-11T22:05:38.760Z,5.32
2023-01-11T22:08:05.736Z,5.20
2023-01-11T22:10:33.477Z,5.26
2023-01-11T22:13:00.626Z,4.71
2023-01-11T22:15:27.628Z,4.97
2023-01-11T22:17:54.531Z,4.45
2023-01-11T22:20:21.513Z,4.79
2023-01-11T22:22:48.563Z,5.15
2023-01-11T22:25:15.706Z,4.14
2023-01-11T22:27:42.697Z,4.70
2023-01-11T22:30:10.248Z,4.40
2023-01-11T22:32:37.189Z,2.75
2023-01-11T22:35:04.245Z,2.62
2023-01-11T22:37:31.247Z,2.62
2023-01-11T22:40:00.124Z,3.32
2023-01-11T22:42:28.468Z,3.03
2023-01-11T22:44:55.457Z,2.50
2023-01-11T22:47:22.407Z,3.37
2023-01-11T22:49:54.032Z,3.03
2023-01-11T22:52:21.765Z,3.47
2023-01-11T22:54:48.844Z,4.11
2023-01-11T22:57:15.794Z,4.54
2023-01-11T22:59:42.756Z,3.75
2023-01-11T23:02:09.695Z,4.14
2023-01-11T23:04:36.737Z,4.56
2023-01-11T23:07:03.978Z,4.26
2023-01-11T23:09:30.955Z,3.60
2023-01-11T23:12:16.378Z,3.07
2023-01-11T23:14:43.383Z,2.74
2023-01-11T23:17:10.741Z,3.28
2023-01-11T23:19:41.031Z,3.40
2023-01-11T23:22:08.528Z,3.36
2023-01-11T23:24:36.267Z,3.31
2023-01-11T23:27:03.287Z,3.66
2023-01-11T23:29:30.317Z,4.23
2023-01-11T23:31:57.287Z,3.16
2023-01-11T23:34:24.353Z,3.81
2023-01-11T23:36:51.263Z,3.99
2023-01-11T23:39:21.324Z,3.98
2023-01-11T23:42:07.108Z,4.14
2023-01-11T23:44:34.253Z,2.62
2023-01-11T23:47:19.882Z,3.29
2023-01-11T23:49:50.367Z,3.28
2023-01-11T23:52:18.844Z,3.63
2023-01-11T23:54:45.868Z,3.47
2023-01-11T23:57:13.545Z,2.16
2023-01-11T23:59:41.117Z,3.11
